sensor_id;sensor_type;location;lat;lon;timestamp;pressure;altitude;pressure_sealevel;temperature;humidity
57900;BME280;60605;53.716;19.940;2022-07-06T00:03:09;100638.10;;;15.51;89.54
57900;BME280;60605;53.716;19.940;2022-07-06T00:08:12;100640.15;;;15.48;89.89
57900;BME280;60605;53.716;19.940;2022-07-06T00:13:16;100642.01;;;15.46;90.43
57900;BME280;60605;53.716;19.940;2022-07-06T00:18:19;100644.18;;;15.44;90.58
57900;BME280;60605;53.716;19.940;2022-07-06T00:23:23;100646.38;;;15.42;90.82
57900;BME280;60605;53.716;19.940;2022-07-06T00:28:27;100645.87;;;15.40;90.76
57900;BME280;60605;53.716;19.940;2022-07-06T00:33:31;100641.52;;;15.39;90.93
57900;BME280;60605;53.716;19.940;2022-07-06T00:38:35;100641.86;;;15.38;91.10
57900;BME280;60605;53.716;19.940;2022-07-06T00:43:55;100639.70;;;15.36;91.16
57900;BME280;60605;53.716;19.940;2022-07-06T00:48:59;100633.80;;;15.32;91.71
57900;BME280;60605;53.716;19.940;2022-07-06T00:54:04;100626.10;;;15.26;91.94
57900;BME280;60605;53.716;19.940;2022-07-06T00:59:07;100617.77;;;15.17;91.95
57900;BME280;60605;53.716;19.940;2022-07-06T01:04:11;100617.69;;;15.08;92.04
57900;BME280;60605;53.716;19.940;2022-07-06T01:09:14;100617.16;;;15.00;92.27
57900;BME280;60605;53.716;19.940;2022-07-06T01:14:18;100618.10;;;14.90;92.53
57900;BME280;60605;53.716;19.940;2022-07-06T01:19:22;100615.34;;;14.77;92.51
57900;BME280;60605;53.716;19.940;2022-07-06T01:24:25;100614.48;;;14.64;92.91
57900;BME280;60605;53.716;19.940;2022-07-06T01:29:29;100614.71;;;14.51;93.10
57900;BME280;60605;53.716;19.940;2022-07-06T01:34:34;100616.08;;;14.39;93.39
57900;BME280;60605;53.716;19.940;2022-07-06T01:39:38;100622.20;;;14.27;93.85
57900;BME280;60605;53.716;19.940;2022-07-06T01:44:41;100612.58;;;14.16;94.21
57900;BME280;60605;53.716;19.940;2022-07-06T01:49:45;100608.34;;;14.07;94.67
57900;BME280;60605;53.716;19.940;2022-07-06T01:54:48;100607.95;;;14.01;95.21
57900;BME280;60605;53.716;19.940;2022-07-06T01:59:51;100597.71;;;13.94;95.49
57900;BME280;60605;53.716;19.940;2022-07-06T02:04:55;100593.79;;;13.89;95.83
57900;BME280;60605;53.716;19.940;2022-07-06T02:09:58;100601.73;;;13.86;96.22
57900;BME280;60605;53.716;19.940;2022-07-06T02:15:02;100594.34;;;13.83;96.77
57900;BME280;60605;53.716;19.940;2022-07-06T02:20:06;100595.00;;;13.80;97.01
57900;BME280;60605;53.716;19.940;2022-07-06T02:25:09;100593.77;;;13.76;97.11
57900;BME280;60605;53.716;19.940;2022-07-06T02:30:13;100597.59;;;13.71;97.18
57900;BME280;60605;53.716;19.940;2022-07-06T02:35:16;100605.75;;;13.69;97.65
57900;BME280;60605;53.716;19.940;2022-07-06T02:40:20;100605.71;;;13.64;97.75
57900;BME280;60605;53.716;19.940;2022-07-06T02:45:24;100608.73;;;13.60;97.63
57900;BME280;60605;53.716;19.940;2022-07-06T02:50:27;100604.14;;;13.57;97.85
57900;BME280;60605;53.716;19.940;2022-07-06T02:55:31;100603.47;;;13.58;98.31
57900;BME280;60605;53.716;19.940;2022-07-06T03:00:34;100604.66;;;13.62;98.44
57900;BME280;60605;53.716;19.940;2022-07-06T03:05:38;100606.35;;;13.66;98.45
57900;BME280;60605;53.716;19.940;2022-07-06T03:10:41;100601.84;;;13.73;98.65
57900;BME280;60605;53.716;19.940;2022-07-06T03:15:45;100598.12;;;13.83;98.87
57900;BME280;60605;53.716;19.940;2022-07-06T03:20:48;100593.13;;;13.97;99.20
57900;BME280;60605;53.716;19.940;2022-07-06T03:25:52;100588.36;;;14.14;99.51
57900;BME280;60605;53.716;19.940;2022-07-06T03:30:55;100589.19;;;14.36;99.51
57900;BME280;60605;53.716;19.940;2022-07-06T03:35:59;100585.47;;;14.60;99.31
57900;BME280;60605;53.716;19.940;2022-07-06T03:41:03;100579.11;;;14.87;98.94
57900;BME280;60605;53.716;19.940;2022-07-06T03:46:06;100580.31;;;15.14;98.99
57900;BME280;60605;53.716;19.940;2022-07-06T03:51:09;100578.70;;;15.44;98.78
57900;BME280;60605;53.716;19.940;2022-07-06T03:56:14;100583.06;;;15.77;98.11
57900;BME280;60605;53.716;19.940;2022-07-06T04:01:32;100581.27;;;16.26;97.84
57900;BME280;60605;53.716;19.940;2022-07-06T04:06:36;100582.10;;;16.93;97.28
57900;BME280;60605;53.716;19.940;2022-07-06T04:11:39;100581.02;;;17.74;95.21
57900;BME280;60605;53.716;19.940;2022-07-06T04:16:42;100582.59;;;18.38;92.63
57900;BME280;60605;53.716;19.940;2022-07-06T04:21:46;100582.10;;;19.38;91.22
57900;BME280;60605;53.716;19.940;2022-07-06T04:26:49;100584.46;;;20.64;88.88
57900;BME280;60605;53.716;19.940;2022-07-06T04:31:52;100579.89;;;22.00;82.38
57900;BME280;60605;53.716;19.940;2022-07-06T04:36:56;100576.90;;;22.85;77.18
57900;BME280;60605;53.716;19.940;2022-07-06T04:42:00;100574.67;;;24.17;73.42
57900;BME280;60605;53.716;19.940;2022-07-06T04:47:03;100577.67;;;25.09;67.40
57900;BME280;60605;53.716;19.940;2022-07-06T04:52:06;100566.59;;;25.52;64.64
57900;BME280;60605;53.716;19.940;2022-07-06T04:57:11;100567.47;;;26.05;62.39
57900;BME280;60605;53.716;19.940;2022-07-06T05:02:14;100573.70;;;26.38;59.83
57900;BME280;60605;53.716;19.940;2022-07-06T05:07:18;100571.54;;;26.90;58.35
57900;BME280;60605;53.716;19.940;2022-07-06T05:12:22;100565.05;;;28.01;55.96
57900;BME280;60605;53.716;19.940;2022-07-06T05:17:25;100566.88;;;28.89;52.29
57900;BME280;60605;53.716;19.940;2022-07-06T05:22:31;100559.13;;;29.53;50.41
57900;BME280;60605;53.716;19.940;2022-07-06T05:27:34;100553.30;;;29.96;46.08
57900;BME280;60605;53.716;19.940;2022-07-06T05:32:38;100555.52;;;30.79;45.19
57900;BME280;60605;53.716;19.940;2022-07-06T05:37:42;100565.59;;;31.77;41.73
57900;BME280;60605;53.716;19.940;2022-07-06T05:42:45;100569.61;;;32.30;39.76
57900;BME280;60605;53.716;19.940;2022-07-06T05:47:49;100573.50;;;32.75;36.94
57900;BME280;60605;53.716;19.940;2022-07-06T05:53:11;100569.46;;;33.17;36.98
57900;BME280;60605;53.716;19.940;2022-07-06T05:58:22;100571.67;;;33.69;35.57
57900;BME280;60605;53.716;19.940;2022-07-06T06:03:29;100569.20;;;34.03;35.06
57900;BME280;60605;53.716;19.940;2022-07-06T06:08:32;100558.86;;;34.48;33.71
57900;BME280;60605;53.716;19.940;2022-07-06T06:13:36;100553.26;;;34.78;33.35
57900;BME280;60605;53.716;19.940;2022-07-06T06:18:39;100549.95;;;35.10;31.85
57900;BME280;60605;53.716;19.940;2022-07-06T06:23:44;100553.33;;;35.38;30.61
57900;BME280;60605;53.716;19.940;2022-07-06T06:28:48;100558.27;;;35.53;30.02
57900;BME280;60605;53.716;19.940;2022-07-06T06:33:52;100557.14;;;35.52;29.70
57900;BME280;60605;53.716;19.940;2022-07-06T06:38:56;100558.41;;;35.84;29.38
57900;BME280;60605;53.716;19.940;2022-07-06T06:44:00;100559.30;;;36.00;29.08
57900;BME280;60605;53.716;19.940;2022-07-06T06:49:03;100559.31;;;35.84;29.55
57900;BME280;60605;53.716;19.940;2022-07-06T06:54:08;100557.65;;;36.04;28.57
57900;BME280;60605;53.716;19.940;2022-07-06T06:59:12;100553.53;;;36.35;28.05
57900;BME280;60605;53.716;19.940;2022-07-06T07:04:19;100548.30;;;36.67;27.32
57900;BME280;60605;53.716;19.940;2022-07-06T07:09:23;100545.45;;;37.01;26.42
57900;BME280;60605;53.716;19.940;2022-07-06T07:14:26;100543.19;;;37.23;25.72
57900;BME280;60605;53.716;19.940;2022-07-06T07:19:30;100543.98;;;37.51;25.89
57900;BME280;60605;53.716;19.940;2022-07-06T07:24:34;100546.17;;;37.58;25.43
57900;BME280;60605;53.716;19.940;2022-07-06T07:29:37;100543.77;;;38.16;25.85
57900;BME280;60605;53.716;19.940;2022-07-06T07:34:41;100547.96;;;38.83;24.66
57900;BME280;60605;53.716;19.940;2022-07-06T07:39:44;100549.69;;;39.46;24.29
57900;BME280;60605;53.716;19.940;2022-07-06T07:44:48;100548.75;;;38.99;23.65
57900;BME280;60605;53.716;19.940;2022-07-06T07:49:51;100546.80;;;38.64;23.32
57900;BME280;60605;53.716;19.940;2022-07-06T07:54:55;100544.92;;;39.01;23.62
57900;BME280;60605;53.716;19.940;2022-07-06T08:00:18;100540.48;;;38.48;23.06
57900;BME280;60605;53.716;19.940;2022-07-06T08:05:29;100537.26;;;38.25;24.04
57900;BME280;60605;53.716;19.940;2022-07-06T08:10:33;100544.63;;;38.17;24.34
57900;BME280;60605;53.716;19.940;2022-07-06T08:15:56;100546.83;;;37.74;24.33
57900;BME280;60605;53.716;19.940;2022-07-06T08:21:00;100539.95;;;38.06;24.10
57900;BME280;60605;53.716;19.940;2022-07-06T08:26:24;100538.16;;;38.74;23.48
57900;BME280;60605;53.716;19.940;2022-07-06T08:31:27;100541.41;;;39.10;22.59
57900;BME280;60605;53.716;19.940;2022-07-06T08:36:51;100543.47;;;39.46;22.39
57900;BME280;60605;53.716;19.940;2022-07-06T08:41:56;100544.01;;;39.99;21.27
57900;BME280;60605;53.716;19.940;2022-07-06T08:47:05;100538.33;;;38.94;21.15
57900;BME280;60605;53.716;19.940;2022-07-06T08:52:10;100537.78;;;37.67;23.08
57900;BME280;60605;53.716;19.940;2022-07-06T08:57:14;100537.89;;;38.37;23.55
57900;BME280;60605;53.716;19.940;2022-07-06T09:02:19;100536.23;;;38.34;22.40
57900;BME280;60605;53.716;19.940;2022-07-06T09:07:24;100533.89;;;38.12;22.56
57900;BME280;60605;53.716;19.940;2022-07-06T09:12:49;100525.36;;;38.58;21.65
57900;BME280;60605;53.716;19.940;2022-07-06T09:17:55;100520.41;;;38.35;22.03
57900;BME280;60605;53.716;19.940;2022-07-06T09:23:05;100512.02;;;38.23;22.05
57900;BME280;60605;53.716;19.940;2022-07-06T09:28:18;100508.77;;;37.95;22.17
57900;BME280;60605;53.716;19.940;2022-07-06T09:33:21;100500.02;;;37.81;22.51
57900;BME280;60605;53.716;19.940;2022-07-06T09:38:26;100504.53;;;37.35;22.83
57900;BME280;60605;53.716;19.940;2022-07-06T09:43:32;100501.27;;;36.28;23.91
57900;BME280;60605;53.716;19.940;2022-07-06T09:48:36;100489.73;;;34.87;24.57
57900;BME280;60605;53.716;19.940;2022-07-06T09:53:50;100491.13;;;33.01;25.50
57900;BME280;60605;53.716;19.940;2022-07-06T09:58:54;100480.60;;;31.92;27.92
57900;BME280;60605;53.716;19.940;2022-07-06T10:04:09;100475.86;;;31.30;29.66
57900;BME280;60605;53.716;19.940;2022-07-06T10:09:15;100471.05;;;30.58;29.42
57900;BME280;60605;53.716;19.940;2022-07-06T10:14:27;100471.83;;;29.77;31.07
57900;BME280;60605;53.716;19.940;2022-07-06T10:19:32;100474.48;;;28.55;32.39
57900;BME280;60605;53.716;19.940;2022-07-06T10:24:36;100473.41;;;27.77;34.10
57900;BME280;60605;53.716;19.940;2022-07-06T10:29:46;100475.96;;;27.21;34.79
57900;BME280;60605;53.716;19.940;2022-07-06T10:34:49;100467.52;;;26.62;35.33
57900;BME280;60605;53.716;19.940;2022-07-06T10:39:53;48006.88;;;-133.68;39.40
57900;BME280;60605;53.716;19.940;2022-07-06T10:50:51;100480.71;;;24.53;40.43
57900;BME280;60605;53.716;19.940;2022-07-06T10:55:56;100477.38;;;24.12;41.84
57900;BME280;60605;53.716;19.940;2022-07-06T11:01:00;100474.13;;;23.93;42.87
57900;BME280;60605;53.716;19.940;2022-07-06T11:06:15;100472.25;;;24.48;44.05
57900;BME280;60605;53.716;19.940;2022-07-06T11:16:31;100465.86;;;24.89;42.36
57900;BME280;60605;53.716;19.940;2022-07-06T11:26:52;100466.35;;;24.76;42.15
57900;BME280;60605;53.716;19.940;2022-07-06T11:31:58;100468.74;;;24.57;42.85
57900;BME280;60605;53.716;19.940;2022-07-06T11:37:07;100465.31;;;24.70;42.56
57900;BME280;60605;53.716;19.940;2022-07-06T11:42:12;100462.63;;;24.66;43.16
57900;BME280;60605;53.716;19.940;2022-07-06T11:47:17;100462.77;;;24.41;43.46
57900;BME280;60605;53.716;19.940;2022-07-06T11:52:27;100460.21;;;24.55;45.03
57900;BME280;60605;53.716;19.940;2022-07-06T11:57:32;100457.17;;;24.94;43.90
57900;BME280;60605;53.716;19.940;2022-07-06T12:02:36;100454.60;;;24.99;42.82
57900;BME280;60605;53.716;19.940;2022-07-06T12:07:39;100460.10;;;24.97;42.33
57900;BME280;60605;53.716;19.940;2022-07-06T12:12:43;100459.45;;;24.64;42.38
57900;BME280;60605;53.716;19.940;2022-07-06T12:17:47;100463.63;;;24.27;43.01
57900;BME280;60605;53.716;19.940;2022-07-06T12:23:04;100460.73;;;24.27;44.04
57900;BME280;60605;53.716;19.940;2022-07-06T12:28:21;100457.07;;;24.89;44.59
57900;BME280;60605;53.716;19.940;2022-07-06T12:33:25;100451.42;;;25.36;43.11
57900;BME280;60605;53.716;19.940;2022-07-06T12:38:31;100457.58;;;25.04;42.50
57900;BME280;60605;53.716;19.940;2022-07-06T12:43:36;100453.02;;;24.57;43.42
57900;BME280;60605;53.716;19.940;2022-07-06T12:48:56;100452.55;;;24.56;45.06
57900;BME280;60605;53.716;19.940;2022-07-06T12:54:12;100455.98;;;24.77;44.80
57900;BME280;60605;53.716;19.940;2022-07-06T12:59:22;100469.13;;;24.50;44.57
57900;BME280;60605;53.716;19.940;2022-07-06T13:04:29;100467.31;;;24.04;44.52
57900;BME280;60605;53.716;19.940;2022-07-06T13:09:32;100472.58;;;23.59;45.74
57900;BME280;60605;53.716;19.940;2022-07-06T13:14:36;100468.33;;;23.22;47.09
57900;BME280;60605;53.716;19.940;2022-07-06T13:19:40;100466.71;;;23.47;48.16
57900;BME280;60605;53.716;19.940;2022-07-06T13:24:43;100464.53;;;23.59;47.35
57900;BME280;60605;53.716;19.940;2022-07-06T13:29:47;100455.63;;;23.71;46.35
57900;BME280;60605;53.716;19.940;2022-07-06T13:34:51;100449.21;;;23.75;46.43
57900;BME280;60605;53.716;19.940;2022-07-06T13:39:54;100439.42;;;24.23;46.00
57900;BME280;60605;53.716;19.940;2022-07-06T13:44:57;100431.98;;;24.12;44.45
57900;BME280;60605;53.716;19.940;2022-07-06T13:50:01;100428.41;;;23.67;46.18
57900;BME280;60605;53.716;19.940;2022-07-06T13:55:07;100427.02;;;23.19;47.19
57900;BME280;60605;53.716;19.940;2022-07-06T14:00:14;100432.38;;;22.66;48.93
57900;BME280;60605;53.716;19.940;2022-07-06T14:05:18;100451.06;;;21.98;52.60
57900;BME280;60605;53.716;19.940;2022-07-06T14:10:23;100457.88;;;21.30;55.40
57900;BME280;60605;53.716;19.940;2022-07-06T14:15:27;100459.83;;;20.72;58.61
57900;BME280;60605;53.716;19.940;2022-07-06T14:20:30;100457.78;;;20.31;61.44
57900;BME280;60605;53.716;19.940;2022-07-06T14:25:34;100456.11;;;20.14;62.35
57900;BME280;60605;53.716;19.940;2022-07-06T14:30:38;100454.78;;;20.15;63.16
57900;BME280;60605;53.716;19.940;2022-07-06T14:35:47;100451.68;;;20.28;63.10
57900;BME280;60605;53.716;19.940;2022-07-06T14:40:50;100450.52;;;20.46;62.31
57900;BME280;60605;53.716;19.940;2022-07-06T14:45:54;100453.06;;;20.58;63.42
57900;BME280;60605;53.716;19.940;2022-07-06T14:50:58;100449.08;;;20.62;64.63
57900;BME280;60605;53.716;19.940;2022-07-06T14:56:02;100443.80;;;20.86;62.14
57900;BME280;60605;53.716;19.940;2022-07-06T15:01:06;100442.11;;;21.05;60.45
57900;BME280;60605;53.716;19.940;2022-07-06T15:06:09;100437.29;;;21.15;59.59
57900;BME280;60605;53.716;19.940;2022-07-06T15:11:33;100438.00;;;21.15;59.73
57900;BME280;60605;53.716;19.940;2022-07-06T15:16:37;100443.39;;;21.09;60.48
57900;BME280;60605;53.716;19.940;2022-07-06T15:21:41;100440.59;;;21.04;60.59
57900;BME280;60605;53.716;19.940;2022-07-06T15:26:44;100446.21;;;21.07;61.03
57900;BME280;60605;53.716;19.940;2022-07-06T15:31:48;100445.93;;;21.02;61.15
57900;BME280;60605;53.716;19.940;2022-07-06T15:36:52;100446.11;;;20.91;60.75
57900;BME280;60605;53.716;19.940;2022-07-06T15:41:57;100441.52;;;20.95;61.23
57900;BME280;60605;53.716;19.940;2022-07-06T15:47:05;100445.17;;;21.04;59.96
57900;BME280;60605;53.716;19.940;2022-07-06T15:52:13;100455.48;;;21.13;60.15
57900;BME280;60605;53.716;19.940;2022-07-06T15:57:18;100458.02;;;20.95;58.27
57900;BME280;60605;53.716;19.940;2022-07-06T16:02:21;100454.55;;;20.71;57.77
57900;BME280;60605;53.716;19.940;2022-07-06T16:07:27;100453.05;;;20.67;57.88
57900;BME280;60605;53.716;19.940;2022-07-06T16:12:51;100449.74;;;20.64;57.78
57900;BME280;60605;53.716;19.940;2022-07-06T16:17:57;100448.80;;;20.56;57.88
57900;BME280;60605;53.716;19.940;2022-07-06T16:23:02;100461.22;;;20.43;58.39
57900;BME280;60605;53.716;19.940;2022-07-06T16:28:06;100466.42;;;20.20;58.83
57900;BME280;60605;53.716;19.940;2022-07-06T16:33:09;100465.66;;;19.98;59.79
57900;BME280;60605;53.716;19.940;2022-07-06T16:38:13;100466.99;;;19.82;60.79
57900;BME280;60605;53.716;19.940;2022-07-06T16:43:17;100465.78;;;19.67;62.21
57900;BME280;60605;53.716;19.940;2022-07-06T16:48:20;100467.20;;;19.48;63.55
57900;BME280;60605;53.716;19.940;2022-07-06T16:53:25;100470.69;;;19.30;65.05
57900;BME280;60605;53.716;19.940;2022-07-06T16:58:29;100467.54;;;19.10;65.27
57900;BME280;60605;53.716;19.940;2022-07-06T17:03:33;100464.58;;;18.95;66.00
57900;BME280;60605;53.716;19.940;2022-07-06T17:08:37;100463.13;;;18.84;66.21
57900;BME280;60605;53.716;19.940;2022-07-06T17:13:40;100463.36;;;18.78;66.52
57900;BME280;60605;53.716;19.940;2022-07-06T17:18:44;100462.30;;;18.79;66.30
57900;BME280;60605;53.716;19.940;2022-07-06T17:23:48;100453.05;;;18.87;66.37
57900;BME280;60605;53.716;19.940;2022-07-06T17:28:55;100451.59;;;19.16;66.62
57900;BME280;60605;53.716;19.940;2022-07-06T17:33:59;100450.74;;;19.40;66.16
57900;BME280;60605;53.716;19.940;2022-07-06T17:39:05;100453.23;;;19.43;66.10
57900;BME280;60605;53.716;19.940;2022-07-06T17:44:08;100455.54;;;19.47;66.73
57900;BME280;60605;53.716;19.940;2022-07-06T17:49:12;100455.98;;;19.44;67.50
57900;BME280;60605;53.716;19.940;2022-07-06T17:54:37;100460.67;;;19.46;65.90
57900;BME280;60605;53.716;19.940;2022-07-06T17:59:40;100463.33;;;19.55;62.81
57900;BME280;60605;53.716;19.940;2022-07-06T18:04:44;100464.73;;;19.48;62.09
57900;BME280;60605;53.716;19.940;2022-07-06T18:09:48;100469.77;;;19.29;61.52
57900;BME280;60605;53.716;19.940;2022-07-06T18:14:52;100469.98;;;19.04;61.42
57900;BME280;60605;53.716;19.940;2022-07-06T18:19:56;100470.36;;;18.84;61.98
57900;BME280;60605;53.716;19.940;2022-07-06T18:25:01;100475.21;;;18.64;62.32
57900;BME280;60605;53.716;19.940;2022-07-06T18:30:28;100480.38;;;18.44;63.25
57900;BME280;60605;53.716;19.940;2022-07-06T18:35:33;100482.65;;;18.28;63.96
57900;BME280;60605;53.716;19.940;2022-07-06T18:40:37;100484.46;;;18.15;64.53
57900;BME280;60605;53.716;19.940;2022-07-06T18:45:42;100480.40;;;18.01;64.70
57900;BME280;60605;53.716;19.940;2022-07-06T18:50:47;100481.09;;;17.81;65.08
57900;BME280;60605;53.716;19.940;2022-07-06T18:55:52;100483.60;;;17.59;65.82
57900;BME280;60605;53.716;19.940;2022-07-06T19:00:56;100488.55;;;17.35;66.56
57900;BME280;60605;53.716;19.940;2022-07-06T19:06:02;100485.78;;;17.10;67.44
57900;BME280;60605;53.716;19.940;2022-07-06T19:11:07;100486.98;;;16.85;68.21
57900;BME280;60605;53.716;19.940;2022-07-06T19:16:11;100491.13;;;16.64;68.93
57900;BME280;60605;53.716;19.940;2022-07-06T19:21:17;100494.52;;;16.47;69.51
57900;BME280;60605;53.716;19.940;2022-07-06T19:26:22;100498.73;;;16.33;70.59
57900;BME280;60605;53.716;19.940;2022-07-06T19:31:29;100505.45;;;16.20;71.60
57900;BME280;60605;53.716;19.940;2022-07-06T19:36:34;100503.06;;;16.09;72.59
57900;BME280;60605;53.716;19.940;2022-07-06T19:41:47;100502.40;;;15.99;72.78
57900;BME280;60605;53.716;19.940;2022-07-06T19:46:52;100500.44;;;15.92;73.17
57900;BME280;60605;53.716;19.940;2022-07-06T19:51:59;100503.17;;;15.89;73.72
57900;BME280;60605;53.716;19.940;2022-07-06T19:57:03;100497.46;;;15.87;74.03
57900;BME280;60605;53.716;19.940;2022-07-06T20:02:10;100493.54;;;15.85;74.52
57900;BME280;60605;53.716;19.940;2022-07-06T20:07:15;100489.91;;;15.82;74.51
57900;BME280;60605;53.716;19.940;2022-07-06T20:12:19;100488.89;;;15.72;74.71
57900;BME280;60605;53.716;19.940;2022-07-06T20:17:22;100491.30;;;15.61;75.07
57900;BME280;60605;53.716;19.940;2022-07-06T20:22:29;100492.11;;;15.46;75.67
57900;BME280;60605;53.716;19.940;2022-07-06T20:27:37;100494.75;;;15.35;76.11
57900;BME280;60605;53.716;19.940;2022-07-06T20:32:44;100493.96;;;15.23;76.51
57900;BME280;60605;53.716;19.940;2022-07-06T20:37:50;100487.68;;;15.11;76.58
57900;BME280;60605;53.716;19.940;2022-07-06T20:42:53;100481.66;;;14.96;76.80
57900;BME280;60605;53.716;19.940;2022-07-06T20:48:18;100482.40;;;14.83;77.48
57900;BME280;60605;53.716;19.940;2022-07-06T20:53:22;100484.75;;;14.76;78.37
57900;BME280;60605;53.716;19.940;2022-07-06T20:58:29;100481.36;;;14.69;79.03
57900;BME280;60605;53.716;19.940;2022-07-06T21:03:54;100486.27;;;14.62;79.30
57900;BME280;60605;53.716;19.940;2022-07-06T21:09:00;100488.05;;;14.51;79.59
57900;BME280;60605;53.716;19.940;2022-07-06T21:14:03;100497.13;;;14.43;80.40
57900;BME280;60605;53.716;19.940;2022-07-06T21:19:07;100497.41;;;14.39;81.39
57900;BME280;60605;53.716;19.940;2022-07-06T21:24:11;100497.11;;;14.35;81.66
57900;BME280;60605;53.716;19.940;2022-07-06T21:29:15;100493.95;;;14.26;81.38
57900;BME280;60605;53.716;19.940;2022-07-06T21:34:19;100495.21;;;14.11;81.51
57900;BME280;60605;53.716;19.940;2022-07-06T21:39:22;100496.54;;;13.95;81.83
57900;BME280;60605;53.716;19.940;2022-07-06T21:44:26;100492.64;;;13.78;82.28
57900;BME280;60605;53.716;19.940;2022-07-06T21:49:30;100496.52;;;13.65;82.84
57900;BME280;60605;53.716;19.940;2022-07-06T21:54:33;100500.46;;;13.53;83.83
57900;BME280;60605;53.716;19.940;2022-07-06T21:59:36;100492.13;;;13.42;83.99
57900;BME280;60605;53.716;19.940;2022-07-06T22:04:40;100494.69;;;13.30;84.36
57900;BME280;60605;53.716;19.940;2022-07-06T22:09:43;100495.55;;;13.18;84.55
57900;BME280;60605;53.716;19.940;2022-07-06T22:14:47;100497.18;;;13.08;85.35
57900;BME280;60605;53.716;19.940;2022-07-06T22:19:50;100495.73;;;12.98;85.53
57900;BME280;60605;53.716;19.940;2022-07-06T22:25:01;100494.60;;;12.86;86.08
57900;BME280;60605;53.716;19.940;2022-07-06T22:30:06;100496.67;;;12.77;86.60
57900;BME280;60605;53.716;19.940;2022-07-06T22:35:10;100498.02;;;12.71;87.28
57900;BME280;60605;53.716;19.940;2022-07-06T22:40:14;100497.54;;;12.67;87.93
57900;BME280;60605;53.716;19.940;2022-07-06T22:45:36;100497.64;;;12.63;88.63
57900;BME280;60605;53.716;19.940;2022-07-06T22:50:40;100498.99;;;12.59;88.96
57900;BME280;60605;53.716;19.940;2022-07-06T22:55:44;100498.67;;;12.51;89.11
57900;BME280;60605;53.716;19.940;2022-07-06T23:00:52;100493.10;;;12.47;89.47
57900;BME280;60605;53.716;19.940;2022-07-06T23:05:56;100486.31;;;12.39;89.65
57900;BME280;60605;53.716;19.940;2022-07-06T23:11:00;100489.86;;;12.33;90.17
57900;BME280;60605;53.716;19.940;2022-07-06T23:16:04;100493.75;;;12.26;90.13
57900;BME280;60605;53.716;19.940;2022-07-06T23:21:11;100493.94;;;12.19;90.49
57900;BME280;60605;53.716;19.940;2022-07-06T23:26:15;100496.08;;;12.14;91.25
57900;BME280;60605;53.716;19.940;2022-07-06T23:31:18;100500.48;;;12.10;91.68
57900;BME280;60605;53.716;19.940;2022-07-06T23:36:22;100495.77;;;12.05;92.05
57900;BME280;60605;53.716;19.940;2022-07-06T23:41:26;100500.54;;;12.03;92.72
57900;BME280;60605;53.716;19.940;2022-07-06T23:46:29;100497.92;;;12.00;92.74
57900;BME280;60605;53.716;19.940;2022-07-06T23:51:32;100499.20;;;11.96;92.98
57900;BME280;60605;53.716;19.940;2022-07-06T23:56:36;100495.61;;;11.93;93.12
